createdAt,value
2023-03-02T00:01:12.285Z,31.50
2023-03-02T00:03:42.795Z,34.80
2023-03-02T00:06:10.873Z,37.03
2023-03-02T00:08:39.597Z,35.80
2023-03-02T00:11:07.236Z,36.17
2023-03-02T00:13:36.493Z,35.80
2023-03-02T00:16:04.291Z,34.23
2023-03-02T00:18:32.157Z,36.97
2023-03-02T00:21:01.214Z,33.40
2023-03-02T00:23:28.787Z,34.80
2023-03-02T00:25:56.426Z,35.53
2023-03-02T00:28:24.051Z,35.80
2023-03-02T00:30:51.668Z,37.23
2023-03-02T00:33:20.845Z,35.20
2023-03-02T00:35:48.831Z,34.20
2023-03-02T00:38:17.785Z,35.70
2023-03-02T00:40:46.864Z,34.07
2023-03-02T00:43:14.608Z,35.23
2023-03-02T00:45:42.225Z,36.03
2023-03-02T00:48:09.889Z,33.00
2023-03-02T00:50:40.865Z,32.53
2023-03-02T00:53:09.203Z,30.20
2023-03-02T00:55:38.832Z,33.93
2023-03-02T00:58:06.804Z,30.07
2023-03-02T01:00:35.544Z,32.27
2023-03-02T01:03:03.239Z,33.50
2023-03-02T01:05:30.911Z,32.60
2023-03-02T01:07:58.563Z,29.77
2023-03-02T01:10:26.212Z,30.43
2023-03-02T01:12:55.170Z,26.60
2023-03-02T01:15:22.772Z,28.53
2023-03-02T01:17:50.458Z,27.40
2023-03-02T01:20:18.926Z,30.73
2023-03-02T01:22:46.654Z,24.10
2023-03-02T01:25:14.544Z,25.57
2023-03-02T01:27:42.197Z,24.50
2023-03-02T01:30:13.728Z,24.33
2023-03-02T01:32:41.369Z,26.30
2023-03-02T01:35:09.870Z,26.07
2023-03-02T01:37:37.526Z,25.70
2023-03-02T01:40:06.450Z,25.67
2023-03-02T01:42:38.078Z,25.77
2023-03-02T01:45:07.330Z,25.70
2023-03-02T01:47:39.742Z,24.83
2023-03-02T01:50:19.981Z,24.37
2023-03-02T01:52:48.413Z,25.03
2023-03-02T01:55:20.431Z,24.70
2023-03-02T01:57:51.624Z,24.83
2023-03-02T02:00:24.553Z,22.73
2023-03-02T02:02:55.827Z,24.50
2023-03-02T02:05:26.884Z,20.23
2023-03-02T02:07:54.513Z,24.10
2023-03-02T02:10:22.189Z,24.93
2023-03-02T02:12:49.861Z,25.60
2023-03-02T02:15:17.638Z,24.47
2023-03-02T02:17:45.323Z,23.83
2023-03-02T02:20:25.025Z,21.90
2023-03-02T02:23:04.745Z,25.13
2023-03-02T02:25:46.313Z,25.00
2023-03-02T02:28:20.663Z,23.83
2023-03-02T02:30:53.004Z,26.23
2023-03-02T02:33:26.389Z,26.13
2023-03-02T02:36:03.060Z,23.57
2023-03-02T02:38:31.836Z,23.67
2023-03-02T02:41:02.449Z,24.60
2023-03-02T02:43:33.233Z,26.73
2023-03-02T02:46:02.291Z,24.50
2023-03-02T02:48:32.963Z,24.17
2023-03-02T02:51:02.931Z,24.23
2023-03-02T02:53:39.314Z,23.37
2023-03-02T02:56:09.050Z,23.17
2023-03-02T02:58:42.974Z,25.70
2023-03-02T03:01:14.319Z,25.17
2023-03-02T03:03:47.460Z,25.40
2023-03-02T03:06:19.219Z,26.77
2023-03-02T03:08:54.078Z,24.63
2023-03-02T03:11:24.523Z,23.27
2023-03-02T03:13:58.573Z,21.93
2023-03-02T03:16:28.834Z,21.77
2023-03-02T03:18:59.721Z,23.40
2023-03-02T03:21:27.310Z,22.90
2023-03-02T03:23:54.967Z,22.77
2023-03-02T03:26:22.625Z,21.50
2023-03-02T03:28:50.235Z,21.60
2023-03-02T03:31:19.278Z,21.90
2023-03-02T03:33:46.953Z,22.13
2023-03-02T03:36:14.717Z,22.43
2023-03-02T03:38:42.452Z,21.87
2023-03-02T03:41:10.027Z,22.03
2023-03-02T03:43:37.679Z,23.73
2023-03-02T03:46:05.608Z,23.03
2023-03-02T03:48:34.661Z,22.23
2023-03-02T03:51:02.430Z,22.27
2023-03-02T03:53:30.054Z,21.97
2023-03-02T03:55:57.813Z,21.93
2023-03-02T03:58:25.683Z,22.27
2023-03-02T04:00:53.743Z,26.00
2023-03-02T04:03:22.418Z,23.90
2023-03-02T04:05:51.603Z,23.17
2023-03-02T04:08:19.750Z,24.53
2023-03-02T04:10:47.744Z,24.10
2023-03-02T04:13:15.490Z,23.37
2023-03-02T04:15:46.553Z,24.27
2023-03-02T04:18:14.615Z,25.10
2023-03-02T04:20:42.234Z,24.97
2023-03-02T04:23:11.176Z,24.40
2023-03-02T04:25:38.784Z,24.67
2023-03-02T04:28:06.522Z,25.80
2023-03-02T04:30:34.189Z,25.50
2023-03-02T04:33:01.866Z,25.80
2023-03-02T04:35:29.621Z,25.03
2023-03-02T04:37:57.277Z,25.43
2023-03-02T04:40:26.356Z,23.47
2023-03-02T04:42:53.950Z,24.77
2023-03-02T04:45:21.582Z,24.70
2023-03-02T04:47:49.164Z,25.37
2023-03-02T04:50:16.940Z,24.37
2023-03-02T04:52:44.615Z,23.67
2023-03-02T04:55:19.099Z,24.37
2023-03-02T04:57:48.341Z,23.70
2023-03-02T05:00:17.524Z,25.30
2023-03-02T05:02:45.576Z,24.90
2023-03-02T05:05:17.103Z,25.27
2023-03-02T05:07:45.243Z,23.70
2023-03-02T05:10:13.325Z,24.57
2023-03-02T05:12:55.143Z,24.20
2023-03-02T05:15:25.352Z,23.07
2023-03-02T05:17:52.984Z,25.00
2023-03-02T05:20:21.532Z,24.67
2023-03-02T05:22:49.337Z,25.57
2023-03-02T05:25:16.929Z,24.03
2023-03-02T05:27:44.550Z,23.03
2023-03-02T05:30:13.723Z,24.03
2023-03-02T05:32:42.971Z,24.00
2023-03-02T05:35:10.996Z,23.47
2023-03-02T05:37:41.551Z,26.03
2023-03-02T05:40:12.532Z,25.77
2023-03-02T05:42:40.324Z,24.77
2023-03-02T05:45:21.852Z,26.97
2023-03-02T05:47:50.977Z,23.73
2023-03-02T05:50:18.950Z,24.07
2023-03-02T05:52:46.709Z,25.30
2023-03-02T05:55:16.043Z,24.23
2023-03-02T05:57:43.880Z,24.20
2023-03-02T06:00:14.012Z,25.83
2023-03-02T06:02:42.788Z,23.93
2023-03-02T06:05:18.802Z,22.77
2023-03-02T06:07:46.725Z,21.03
2023-03-02T06:10:14.923Z,21.53
2023-03-02T06:12:42.673Z,22.33
2023-03-02T06:15:10.945Z,22.97
2023-03-02T06:17:38.712Z,22.13
2023-03-02T06:20:10.945Z,21.90
2023-03-02T06:22:42.148Z,21.93
2023-03-02T06:25:11.270Z,23.40
2023-03-02T06:27:40.566Z,23.10
2023-03-02T06:30:10.917Z,22.97
2023-03-02T06:32:38.642Z,24.07
2023-03-02T06:35:07.678Z,24.33
2023-03-02T06:37:35.438Z,24.90
2023-03-02T06:40:08.602Z,24.17
2023-03-02T06:42:36.250Z,22.40
2023-03-02T06:45:03.916Z,24.37
2023-03-02T06:47:31.771Z,22.17
2023-03-02T06:49:59.367Z,23.63
2023-03-02T06:52:27.443Z,24.00
2023-03-02T06:54:55.191Z,23.77
2023-03-02T06:57:24.431Z,22.77
2023-03-02T06:59:52.193Z,23.23
2023-03-02T07:02:19.822Z,24.77
2023-03-02T07:04:47.406Z,25.47
2023-03-02T07:07:14.992Z,24.00
2023-03-02T07:09:42.830Z,25.47
2023-03-02T07:12:10.434Z,26.53
2023-03-02T07:14:39.587Z,28.00
2023-03-02T07:17:07.325Z,27.90
2023-03-02T07:19:35.014Z,27.67
2023-03-02T07:22:02.715Z,24.50
2023-03-02T07:24:30.454Z,26.40
2023-03-02T07:26:58.234Z,24.93
2023-03-02T07:29:25.945Z,26.53
2023-03-02T07:31:57.296Z,26.03
2023-03-02T07:34:25.704Z,25.27
2023-03-02T07:36:53.910Z,26.60
2023-03-02T07:39:21.717Z,23.93
2023-03-02T07:41:49.610Z,27.60
2023-03-02T07:44:17.347Z,25.17
2023-03-02T07:46:45.129Z,24.47
2023-03-02T07:49:14.528Z,24.40
2023-03-02T07:51:42.283Z,23.90
2023-03-02T07:54:10.042Z,22.37
2023-03-02T07:56:38.167Z,24.60
2023-03-02T07:59:05.847Z,24.23
2023-03-02T08:01:33.888Z,23.17
2023-03-02T08:04:01.821Z,22.50
2023-03-02T08:06:31.200Z,22.30
2023-03-02T08:09:00.968Z,22.93
2023-03-02T08:11:28.662Z,24.00
2023-03-02T08:13:56.298Z,24.20
2023-03-02T08:16:26.323Z,23.90
2023-03-02T08:18:54.413Z,24.13
2023-03-02T08:21:24.168Z,23.70
2023-03-02T08:23:53.883Z,22.17
2023-03-02T08:26:22.464Z,25.23
2023-03-02T08:28:50.277Z,24.60
2023-03-02T08:31:18.082Z,26.63
2023-03-02T08:33:46.778Z,26.50
2023-03-02T08:36:17.755Z,36.33
2023-03-02T08:38:46.311Z,27.30
2023-03-02T08:41:17.061Z,30.90
2023-03-02T08:43:44.970Z,31.40
2023-03-02T08:46:14.600Z,30.27
2023-03-02T08:48:42.513Z,29.00
2023-03-02T08:51:13.041Z,32.73
2023-03-02T08:53:42.894Z,28.60
2023-03-02T08:56:20.105Z,28.23
2023-03-02T08:58:48.693Z,31.97
2023-03-02T09:01:18.117Z,49.57
2023-03-02T09:03:45.909Z,28.37
2023-03-02T09:06:14.396Z,28.77
2023-03-02T09:08:42.548Z,30.07
2023-03-02T09:11:10.310Z,30.70
2023-03-02T09:13:40.213Z,29.87
2023-03-02T09:16:09.403Z,30.00
2023-03-02T09:18:37.259Z,28.93
2023-03-02T09:21:06.065Z,27.10
2023-03-02T09:23:35.456Z,28.57
2023-03-02T09:26:03.523Z,27.47
2023-03-02T09:28:31.834Z,28.33
2023-03-02T09:31:02.670Z,31.33
2023-03-02T09:33:31.738Z,29.43
2023-03-02T09:36:01.405Z,28.03
2023-03-02T09:38:29.332Z,29.90
2023-03-02T09:41:24.211Z,26.70
2023-03-02T09:44:00.653Z,27.70
2023-03-02T09:46:35.006Z,26.67
2023-03-02T09:49:17.496Z,28.03
2023-03-02T09:51:52.163Z,27.80
2023-03-02T09:54:24.561Z,28.07
2023-03-02T09:56:57.207Z,27.53
2023-03-02T09:59:28.490Z,26.50
2023-03-02T10:02:02.398Z,25.97
2023-03-02T10:04:32.179Z,28.10
2023-03-02T10:07:11.630Z,25.70
2023-03-02T10:09:39.615Z,26.87
2023-03-02T10:12:22.295Z,26.90
2023-03-02T10:14:57.547Z,25.13
2023-03-02T10:17:40.645Z,25.53
2023-03-02T10:20:15.467Z,29.13
2023-03-02T10:22:49.225Z,28.93
2023-03-02T10:25:31.699Z,28.70
2023-03-02T10:28:06.931Z,29.40
2023-03-02T10:30:38.279Z,29.87
2023-03-02T10:33:14.481Z,28.03
2023-03-02T10:35:46.287Z,28.73
2023-03-02T10:38:16.324Z,29.13
2023-03-02T10:40:47.939Z,28.37
2023-03-02T10:43:20.154Z,28.73
2023-03-02T10:45:59.926Z,27.63
2023-03-02T10:48:29.103Z,27.93
2023-03-02T10:50:59.187Z,27.67
2023-03-02T10:53:27.247Z,26.97
2023-03-02T10:55:55.022Z,27.67
2023-03-02T10:58:26.401Z,26.73
2023-03-02T11:00:58.989Z,28.73
2023-03-02T11:03:27.569Z,28.70
2023-03-02T11:05:57.344Z,27.67
2023-03-02T11:08:26.389Z,30.43
2023-03-02T11:11:00.012Z,30.10
2023-03-02T11:13:31.859Z,32.93
2023-03-02T11:16:01.190Z,30.93
2023-03-02T11:18:34.048Z,30.70
2023-03-02T11:21:07.508Z,30.87
2023-03-02T11:23:46.668Z,30.07
2023-03-02T11:26:23.043Z,28.63
2023-03-02T11:28:56.605Z,29.03
2023-03-02T11:31:32.707Z,29.13
2023-03-02T11:34:17.699Z,31.13
2023-03-02T11:36:57.519Z,28.63
2023-03-02T11:39:30.020Z,28.83
2023-03-02T11:41:58.007Z,30.43
2023-03-02T11:44:27.396Z,28.40
2023-03-02T11:47:01.093Z,30.97
2023-03-02T11:49:39.047Z,28.47
2023-03-02T11:52:18.179Z,30.27
2023-03-02T11:54:48.563Z,30.07
2023-03-02T11:57:23.344Z,28.23
2023-03-02T11:59:52.100Z,26.60
2023-03-02T12:02:20.813Z,24.97
2023-03-02T12:04:49.272Z,23.53
2023-03-02T12:07:22.880Z,26.13
2023-03-02T12:10:07.053Z,24.70
2023-03-02T12:12:40.932Z,24.27
2023-03-02T12:15:29.091Z,23.87
2023-03-02T12:17:56.827Z,23.30
2023-03-02T12:20:28.007Z,21.43
2023-03-02T12:23:08.757Z,23.43
2023-03-02T12:25:43.831Z,22.93
2023-03-02T12:28:28.546Z,20.97
2023-03-02T12:31:11.950Z,19.80
2023-03-02T12:33:43.918Z,21.83
2023-03-02T12:36:15.192Z,21.23
2023-03-02T12:38:53.844Z,22.57
2023-03-02T12:41:41.410Z,22.50
2023-03-02T12:44:27.856Z,20.23
2023-03-02T12:46:56.322Z,21.47
2023-03-02T12:49:36.404Z,21.77
2023-03-02T12:52:19.005Z,21.53
2023-03-02T12:54:48.183Z,19.00
2023-03-02T12:57:18.403Z,18.50
2023-03-02T12:59:53.466Z,20.13
2023-03-02T13:02:23.043Z,19.23
2023-03-02T13:04:55.523Z,21.07
2023-03-02T13:07:27.433Z,20.20
2023-03-02T13:09:59.647Z,20.77
2023-03-02T13:12:29.831Z,21.70
2023-03-02T13:14:59.582Z,19.83
2023-03-02T13:17:31.133Z,22.63
2023-03-02T13:20:00.533Z,22.60
2023-03-02T13:22:28.722Z,20.10
2023-03-02T13:25:02.078Z,19.50
2023-03-02T13:27:30.645Z,19.13
2023-03-02T13:30:10.609Z,22.63
2023-03-02T13:32:43.141Z,21.60
2023-03-02T13:35:21.006Z,22.10
2023-03-02T13:37:48.766Z,21.83
2023-03-02T13:40:40.187Z,21.77
2023-03-02T13:43:22.468Z,23.33
2023-03-02T13:45:56.069Z,22.70
2023-03-02T13:48:24.194Z,21.20
2023-03-02T13:50:54.223Z,22.53
2023-03-02T13:53:22.214Z,22.37
2023-03-02T13:55:52.474Z,20.80
2023-03-02T13:58:21.739Z,22.13
2023-03-02T14:00:50.578Z,21.77
2023-03-02T14:03:27.392Z,22.43
2023-03-02T14:05:57.017Z,21.77
2023-03-02T14:08:25.085Z,20.23
2023-03-02T14:10:57.215Z,20.13
2023-03-02T14:13:27.304Z,22.97
2023-03-02T14:15:55.229Z,22.83
2023-03-02T14:18:32.495Z,22.47
2023-03-02T14:21:00.366Z,24.17
2023-03-02T14:23:28.658Z,22.77
2023-03-02T14:25:58.780Z,22.73
2023-03-02T14:28:31.273Z,22.20
2023-03-02T14:30:59.862Z,22.80
2023-03-02T14:33:27.599Z,23.73
2023-03-02T14:35:59.222Z,23.77
2023-03-02T14:38:28.171Z,24.07
2023-03-02T14:40:57.992Z,17.37
2023-03-02T14:43:26.457Z,17.20
2023-03-02T14:45:54.547Z,18.80
2023-03-02T14:48:22.330Z,19.30
2023-03-02T14:50:51.592Z,19.03
2023-03-02T14:53:24.048Z,20.73
2023-03-02T14:55:51.892Z,21.17
2023-03-02T14:58:26.436Z,21.50
2023-03-02T15:00:54.172Z,21.40
2023-03-02T15:03:25.455Z,22.87
2023-03-02T15:06:01.230Z,22.23
2023-03-02T15:08:30.308Z,21.37
2023-03-02T15:10:58.463Z,20.17
2023-03-02T15:13:27.548Z,20.67
2023-03-02T15:15:55.290Z,21.53
2023-03-02T15:18:22.976Z,19.00
2023-03-02T15:20:50.641Z,21.03
2023-03-02T15:23:18.311Z,19.57
2023-03-02T15:25:46.102Z,19.97
2023-03-02T15:28:13.819Z,19.40
2023-03-02T15:30:43.013Z,20.20
2023-03-02T15:33:10.695Z,19.70
2023-03-02T15:35:40.870Z,18.83
2023-03-02T15:38:08.565Z,18.70
2023-03-02T15:40:36.881Z,19.47
2023-03-02T15:43:04.745Z,19.67
2023-03-02T15:45:32.575Z,18.77
2023-03-02T15:48:01.629Z,19.63
2023-03-02T15:50:29.437Z,17.93
2023-03-02T15:52:57.460Z,18.83
2023-03-02T15:55:25.372Z,19.43
2023-03-02T15:57:53.609Z,17.77
2023-03-02T16:00:22.235Z,17.93
2023-03-02T16:02:50.422Z,17.00
2023-03-02T16:05:19.684Z,17.17
2023-03-02T16:07:47.404Z,17.27
2023-03-02T16:10:16.525Z,17.70
2023-03-02T16:12:44.362Z,18.90
2023-03-02T16:15:12.505Z,18.47
2023-03-02T16:17:40.277Z,18.53
2023-03-02T16:20:08.670Z,18.67
2023-03-02T16:22:37.840Z,17.57
2023-03-02T16:25:06.316Z,17.23
2023-03-02T16:27:34.038Z,14.77
2023-03-02T16:30:01.787Z,13.70
2023-03-02T16:32:30.113Z,12.47
2023-03-02T16:34:57.927Z,14.00
2023-03-02T16:37:25.793Z,12.80
2023-03-02T16:39:54.905Z,10.80
2023-03-02T16:42:22.654Z,9.57
2023-03-02T16:44:50.925Z,10.50
2023-03-02T16:47:18.646Z,13.73
2023-03-02T16:49:46.342Z,11.60
2023-03-02T16:52:14.082Z,10.67
2023-03-02T16:54:41.839Z,9.30
2023-03-02T16:57:11.052Z,8.60
2023-03-02T16:59:38.760Z,9.70
2023-03-02T17:02:06.459Z,9.70
2023-03-02T17:04:37.016Z,9.37
2023-03-02T17:07:05.350Z,8.67
2023-03-02T17:09:41.355Z,8.37
2023-03-02T17:12:09.399Z,8.33
2023-03-02T17:14:38.731Z,9.07
2023-03-02T17:17:06.583Z,8.73
2023-03-02T17:19:34.717Z,9.30
2023-03-02T17:22:03.513Z,8.93
2023-03-02T17:24:32.005Z,11.10
2023-03-02T17:26:59.798Z,10.10
2023-03-02T17:29:27.837Z,10.20
2023-03-02T17:31:57.380Z,11.40
2023-03-02T17:34:28.634Z,11.27
2023-03-02T17:36:56.513Z,9.93
2023-03-02T17:39:24.564Z,10.97
2023-03-02T17:41:52.601Z,11.30
2023-03-02T17:44:20.607Z,12.00
2023-03-02T17:46:48.501Z,11.40
2023-03-02T17:49:17.757Z,12.10
2023-03-02T17:51:46.056Z,11.43
2023-03-02T17:54:13.740Z,11.03
2023-03-02T17:56:41.604Z,12.27
2023-03-02T17:59:09.378Z,12.97
2023-03-02T18:01:37.165Z,14.20
2023-03-02T18:04:05.272Z,15.20
2023-03-02T18:06:34.641Z,16.77
2023-03-02T18:09:02.725Z,14.90
2023-03-02T18:11:30.644Z,14.43
2023-03-02T18:13:59.049Z,14.33
2023-03-02T18:16:29.210Z,15.07
2023-03-02T18:18:57.337Z,15.00
2023-03-02T18:21:25.166Z,16.30
2023-03-02T18:23:54.584Z,16.83
2023-03-02T18:26:22.468Z,15.30
2023-03-02T18:28:50.302Z,17.07
2023-03-02T18:31:19.242Z,20.47
2023-03-02T18:33:47.673Z,21.90
2023-03-02T18:36:15.945Z,24.03
2023-03-02T18:38:43.848Z,20.93
2023-03-02T18:41:14.873Z,19.40
2023-03-02T18:43:43.612Z,20.00
2023-03-02T18:46:20.172Z,18.40
2023-03-02T18:48:49.681Z,19.80
2023-03-02T18:51:17.928Z,17.67
2023-03-02T18:53:46.233Z,17.43
2023-03-02T18:56:15.843Z,19.77
2023-03-02T18:58:43.746Z,20.70
2023-03-02T19:01:12.286Z,20.70
2023-03-02T19:03:41.825Z,19.53
2023-03-02T19:06:09.972Z,18.37
2023-03-02T19:08:38.162Z,17.97
2023-03-02T19:11:07.029Z,19.13
2023-03-02T19:13:36.341Z,19.13
2023-03-02T19:16:04.765Z,20.50
2023-03-02T19:18:33.234Z,19.37
2023-03-02T19:21:01.708Z,20.03
2023-03-02T19:23:29.736Z,20.20
2023-03-02T19:25:57.735Z,22.37
2023-03-02T19:28:26.123Z,20.73
2023-03-02T19:30:55.320Z,22.60
2023-03-02T19:33:24.753Z,22.10
2023-03-02T19:35:52.589Z,22.30
2023-03-02T19:38:20.713Z,23.23
2023-03-02T19:40:48.432Z,28.40
2023-03-02T19:43:16.202Z,31.97
2023-03-02T19:45:43.973Z,29.67
2023-03-02T19:48:13.741Z,28.73
2023-03-02T19:50:43.480Z,25.13
2023-03-02T19:53:11.319Z,23.83
2023-03-02T19:55:39.700Z,21.07
2023-03-02T19:58:08.092Z,23.53
2023-03-02T20:00:36.325Z,30.03
2023-03-02T20:03:06.047Z,37.07
2023-03-02T20:05:35.414Z,27.67
2023-03-02T20:08:03.589Z,26.50
2023-03-02T20:10:34.821Z,24.30
2023-03-02T20:13:03.615Z,22.17
2023-03-02T20:15:33.360Z,22.23
2023-03-02T20:18:02.607Z,20.47
2023-03-02T20:20:30.958Z,23.27
2023-03-02T20:23:01.070Z,23.50
2023-03-02T20:25:29.787Z,27.60
2023-03-02T20:27:58.309Z,23.33
2023-03-02T20:30:29.210Z,24.67
2023-03-02T20:32:58.086Z,28.87
2023-03-02T20:35:27.339Z,25.47
2023-03-02T20:37:57.198Z,23.30
2023-03-02T20:40:27.015Z,23.40
2023-03-02T20:42:54.837Z,22.90
2023-03-02T20:45:23.061Z,21.83
2023-03-02T20:47:50.775Z,21.93
2023-03-02T20:50:23.767Z,23.90
2023-03-02T20:52:51.664Z,22.60
2023-03-02T20:55:20.031Z,22.60
2023-03-02T20:57:49.649Z,21.50
2023-03-02T21:00:21.283Z,21.37
2023-03-02T21:02:49.788Z,21.47
2023-03-02T21:05:18.810Z,21.60
2023-03-02T21:07:47.189Z,21.97
2023-03-02T21:10:17.493Z,23.73
2023-03-02T21:12:45.701Z,24.87
2023-03-02T21:15:15.005Z,45.07
2023-03-02T21:17:43.145Z,30.40
2023-03-02T21:20:18.327Z,25.43
2023-03-02T21:22:47.593Z,22.03
2023-03-02T21:25:16.999Z,23.03
2023-03-02T21:27:46.138Z,21.90
2023-03-02T21:30:19.858Z,23.07
2023-03-02T21:32:48.118Z,23.60
2023-03-02T21:35:19.818Z,23.07
2023-03-02T21:37:49.457Z,21.97
2023-03-02T21:40:19.888Z,22.67
2023-03-02T21:42:47.632Z,22.47
2023-03-02T21:45:18.892Z,24.37
2023-03-02T21:47:46.854Z,22.47
2023-03-02T21:50:16.895Z,21.37
2023-03-02T21:52:44.655Z,22.47
2023-03-02T21:55:13.307Z,22.60
2023-03-02T21:57:41.204Z,21.33
2023-03-02T22:00:10.443Z,22.87
2023-03-02T22:02:39.975Z,23.27
2023-03-02T22:05:08.149Z,21.63
2023-03-02T22:07:35.853Z,20.70
2023-03-02T22:10:03.808Z,21.47
2023-03-02T22:12:31.501Z,21.77
2023-03-02T22:15:03.919Z,21.60
2023-03-02T22:17:31.623Z,21.93
2023-03-02T22:20:00.715Z,23.00
2023-03-02T22:22:30.073Z,22.33
2023-03-02T22:24:57.735Z,21.37
2023-03-02T22:27:27.200Z,21.47
2023-03-02T22:29:57.744Z,21.87
2023-03-02T22:32:28.451Z,22.50
2023-03-02T22:34:57.761Z,22.70
2023-03-02T22:37:28.738Z,20.70
2023-03-02T22:39:58.498Z,22.90
2023-03-02T22:42:30.340Z,22.17
2023-03-02T22:45:03.198Z,21.07
2023-03-02T22:47:30.910Z,21.40
2023-03-02T22:50:01.711Z,20.23
2023-03-02T22:52:39.289Z,20.67
2023-03-02T22:55:28.843Z,20.37
2023-03-02T22:57:56.612Z,22.50
2023-03-02T23:00:35.692Z,21.03
2023-03-02T23:03:17.207Z,23.13
2023-03-02T23:05:48.945Z,21.97
2023-03-02T23:08:23.334Z,23.03
2023-03-02T23:10:53.563Z,22.10
2023-03-02T23:13:26.142Z,22.80
2023-03-02T23:15:56.136Z,21.03
2023-03-02T23:18:27.153Z,21.20
2023-03-02T23:20:55.726Z,21.80
2023-03-02T23:23:25.602Z,23.23
2023-03-02T23:25:53.321Z,21.83
2023-03-02T23:28:21.086Z,22.67
2023-03-02T23:30:48.819Z,21.60
2023-03-02T23:33:16.588Z,22.60
2023-03-02T23:35:44.324Z,21.53
2023-03-02T23:38:12.022Z,23.13
2023-03-02T23:40:41.860Z,21.57
2023-03-02T23:43:09.565Z,23.23
2023-03-02T23:45:39.276Z,21.97
2023-03-02T23:48:07.684Z,23.83
2023-03-02T23:50:35.371Z,24.07
2023-03-02T23:53:03.051Z,24.50
2023-03-02T23:55:31.401Z,24.27
2023-03-02T23:58:00.427Z,23.10
